createdAt,value
2018-03-27T00:02:14.095Z,7.70
2018-03-27T00:04:41.079Z,8.53
2018-03-27T00:07:08.068Z,8.17
2018-03-27T00:09:35.858Z,7.90
2018-03-27T00:12:02.918Z,7.50
2018-03-27T00:14:29.897Z,7.57
2018-03-27T00:16:58.400Z,7.57
2018-03-27T00:19:25.410Z,7.53
2018-03-27T00:21:52.412Z,7.83
2018-03-27T00:24:20.179Z,7.27
2018-03-27T00:26:47.176Z,7.97
2018-03-27T00:29:14.198Z,7.60
2018-03-27T00:31:41.204Z,7.17
2018-03-27T00:34:08.978Z,7.07
2018-03-27T00:36:36.244Z,7.40
2018-03-27T00:39:03.223Z,7.03
2018-03-27T00:41:30.218Z,6.57
2018-03-27T00:43:57.994Z,6.27
2018-03-27T00:46:24.979Z,6.43
2018-03-27T00:48:51.973Z,6.37
2018-03-27T00:51:19.731Z,6.83
2018-03-27T00:53:46.813Z,6.50
2018-03-27T00:56:13.794Z,6.57
2018-03-27T00:58:40.800Z,7.27
2018-03-27T01:01:08.568Z,6.50
2018-03-27T01:03:35.622Z,6.00
2018-03-27T01:06:02.610Z,5.90
2018-03-27T01:08:31.125Z,6.80
2018-03-27T01:10:58.112Z,6.03
2018-03-27T01:13:25.256Z,6.63
2018-03-27T01:15:52.242Z,5.90
2018-03-27T01:18:19.236Z,5.83
2018-03-27T01:20:46.235Z,7.40
2018-03-27T01:23:13.219Z,6.80
2018-03-27T01:25:40.239Z,5.90
2018-03-27T01:28:07.246Z,5.53
2018-03-27T01:30:34.235Z,5.67
2018-03-27T01:33:02.045Z,6.23
2018-03-27T01:35:29.042Z,6.40
2018-03-27T01:37:56.039Z,5.53
2018-03-27T01:40:23.023Z,6.60
2018-03-27T01:42:50.243Z,5.90
2018-03-27T01:45:17.239Z,5.97
2018-03-27T01:47:44.218Z,5.60
2018-03-27T01:50:11.211Z,5.70
2018-03-27T01:52:38.445Z,5.60
2018-03-27T01:55:05.441Z,5.60
2018-03-27T01:57:32.435Z,6.40
2018-03-27T01:59:59.419Z,5.70
2018-03-27T02:02:27.229Z,5.33
2018-03-27T02:04:54.220Z,5.60
2018-03-27T02:07:21.215Z,5.20
2018-03-27T02:09:48.207Z,5.07
2018-03-27T02:12:15.255Z,5.60
2018-03-27T02:14:42.239Z,5.10
2018-03-27T02:17:09.573Z,5.23
2018-03-27T02:19:37.344Z,5.17
2018-03-27T02:22:04.421Z,5.17
2018-03-27T02:24:31.400Z,5.37
2018-03-27T02:26:58.401Z,5.00
2018-03-27T02:29:25.406Z,5.13
2018-03-27T02:31:52.605Z,5.40
2018-03-27T02:34:19.600Z,5.53
2018-03-27T02:36:46.595Z,5.87
2018-03-27T02:39:13.614Z,5.20
2018-03-27T02:41:40.630Z,5.27
2018-03-27T02:44:07.633Z,5.03
2018-03-27T02:46:34.689Z,5.37
2018-03-27T02:49:01.679Z,5.20
2018-03-27T02:51:28.676Z,5.67
2018-03-27T02:53:55.676Z,5.27
2018-03-27T02:56:22.689Z,4.90
2018-03-27T02:58:49.679Z,4.83
2018-03-27T03:01:16.684Z,5.00
2018-03-27T03:03:43.835Z,5.23
2018-03-27T03:06:10.826Z,5.37
2018-03-27T03:08:37.822Z,5.17
2018-03-27T03:11:04.841Z,5.50
2018-03-27T03:13:32.630Z,5.57
2018-03-27T03:15:59.657Z,5.20
2018-03-27T03:18:26.654Z,4.90
2018-03-27T03:20:53.649Z,4.73
2018-03-27T03:23:21.439Z,5.40
2018-03-27T03:25:48.446Z,5.43
2018-03-27T03:28:15.530Z,4.50
2018-03-27T03:30:42.515Z,5.20
2018-03-27T03:33:09.646Z,5.70
2018-03-27T03:35:36.644Z,5.20
2018-03-27T03:38:03.655Z,5.10
2018-03-27T03:40:30.648Z,5.03
2018-03-27T03:42:58.430Z,5.60
2018-03-27T03:45:25.433Z,5.10
2018-03-27T03:47:52.457Z,5.40
2018-03-27T03:50:19.441Z,5.07
2018-03-27T03:52:47.257Z,5.53
2018-03-27T03:55:14.268Z,5.20
2018-03-27T03:57:41.289Z,5.40
2018-03-27T04:00:08.285Z,5.73
2018-03-27T04:02:35.596Z,5.70
2018-03-27T04:05:02.613Z,5.70
2018-03-27T04:07:29.618Z,5.53
2018-03-27T04:09:56.640Z,5.23
2018-03-27T04:12:24.450Z,5.43
2018-03-27T04:14:51.440Z,5.40
2018-03-27T04:17:18.449Z,4.43
2018-03-27T04:19:45.446Z,5.03
2018-03-27T04:22:13.273Z,4.93
2018-03-27T04:24:40.258Z,5.10
2018-03-27T04:27:07.274Z,4.80
2018-03-27T04:29:34.280Z,5.20
2018-03-27T04:32:01.665Z,6.13
2018-03-27T04:34:28.636Z,5.57
2018-03-27T04:36:55.645Z,5.10
2018-03-27T04:39:22.624Z,5.47
2018-03-27T04:41:49.630Z,5.10
2018-03-27T04:44:17.090Z,5.30
2018-03-27T04:46:44.082Z,5.10
2018-03-27T04:49:11.081Z,5.00
2018-03-27T04:51:38.079Z,5.00
2018-03-27T04:54:06.073Z,5.30
2018-03-27T04:56:33.065Z,5.23
2018-03-27T04:59:00.046Z,5.47
2018-03-27T05:01:27.820Z,4.63
2018-03-27T05:03:54.831Z,5.40
2018-03-27T05:06:21.819Z,4.50
2018-03-27T05:08:49.575Z,5.00
2018-03-27T05:11:16.582Z,4.97
2018-03-27T05:13:43.889Z,4.90
2018-03-27T05:16:10.893Z,4.87
2018-03-27T05:18:37.909Z,5.50
2018-03-27T05:21:04.910Z,5.40
2018-03-27T05:23:32.713Z,5.50
2018-03-27T05:25:59.701Z,5.37
2018-03-27T05:28:26.692Z,5.80
2018-03-27T05:30:53.677Z,5.97
2018-03-27T05:33:20.704Z,5.43
2018-03-27T05:35:47.718Z,4.80
2018-03-27T05:38:14.722Z,5.10
2018-03-27T05:40:41.710Z,4.93
2018-03-27T05:43:09.504Z,5.80
2018-03-27T05:45:36.499Z,6.20
2018-03-27T05:48:03.501Z,5.10
2018-03-27T05:50:30.548Z,5.67
2018-03-27T05:52:57.707Z,6.07
2018-03-27T05:55:24.680Z,5.83
2018-03-27T05:57:52.454Z,5.07
2018-03-27T06:00:19.454Z,5.93
2018-03-27T06:02:46.485Z,5.77
2018-03-27T06:05:13.488Z,5.70
2018-03-27T06:07:40.485Z,5.80
2018-03-27T06:10:07.484Z,5.87
2018-03-27T06:12:34.685Z,6.47
2018-03-27T06:15:01.694Z,6.40
2018-03-27T06:17:28.703Z,7.17
2018-03-27T06:19:55.696Z,6.77
2018-03-27T06:22:23.532Z,6.30
2018-03-27T06:24:50.545Z,6.57
2018-03-27T06:27:17.522Z,7.77
2018-03-27T06:29:44.525Z,7.30
2018-03-27T06:32:12.416Z,8.00
2018-03-27T06:34:39.428Z,7.87
2018-03-27T06:37:07.400Z,8.10
2018-03-27T06:39:34.420Z,7.10
2018-03-27T06:42:01.534Z,8.67
2018-03-27T06:44:28.544Z,8.07
2018-03-27T06:46:55.545Z,8.90
2018-03-27T06:49:22.555Z,8.00
2018-03-27T06:51:49.575Z,9.00
2018-03-27T06:54:17.381Z,9.37
2018-03-27T06:56:44.400Z,9.77
2018-03-27T06:59:11.413Z,10.10
2018-03-27T07:01:38.477Z,10.00
2018-03-27T07:04:05.484Z,12.30
2018-03-27T07:06:32.503Z,10.53
2018-03-27T07:08:59.511Z,11.47
2018-03-27T07:11:27.266Z,10.17
2018-03-27T07:13:55.072Z,11.20
2018-03-27T07:16:22.068Z,9.43
2018-03-27T07:18:49.070Z,9.70
2018-03-27T07:21:16.136Z,10.33
2018-03-27T07:23:43.184Z,10.17
2018-03-27T07:26:10.200Z,9.30
2018-03-27T07:28:37.213Z,10.10
2018-03-27T07:31:04.214Z,9.40
2018-03-27T07:33:31.361Z,10.30
2018-03-27T07:35:58.392Z,9.67
2018-03-27T07:38:25.401Z,9.00
2018-03-27T07:40:52.412Z,8.77
2018-03-27T07:43:19.617Z,10.00
2018-03-27T07:45:47.577Z,9.03
2018-03-27T07:48:14.591Z,8.60
2018-03-27T07:50:41.614Z,9.27
2018-03-27T07:53:08.771Z,8.07
2018-03-27T07:55:35.770Z,8.90
2018-03-27T07:58:02.779Z,8.77
2018-03-27T08:00:29.838Z,8.67
2018-03-27T08:02:56.945Z,8.00
2018-03-27T08:05:23.942Z,8.17
2018-03-27T08:07:52.445Z,8.27
2018-03-27T08:10:19.459Z,7.57
2018-03-27T08:12:46.574Z,29.83
2018-03-27T08:15:13.577Z,30.23
2018-03-27T08:17:41.487Z,29.00
2018-03-27T08:20:08.560Z,19.90
2018-03-27T08:22:35.596Z,30.47
2018-03-27T08:25:02.619Z,33.27
2018-03-27T08:27:29.649Z,36.53
2018-03-27T08:29:56.649Z,37.93
2018-03-27T08:32:23.785Z,29.20
2018-03-27T08:34:50.802Z,25.83
2018-03-27T08:37:17.857Z,34.80
2018-03-27T08:39:44.850Z,23.90
2018-03-27T08:42:12.162Z,22.57
2018-03-27T08:44:39.158Z,22.07
2018-03-27T08:47:06.160Z,20.43
2018-03-27T08:49:33.162Z,16.23
2018-03-27T08:52:00.367Z,14.23
2018-03-27T08:54:27.380Z,11.80
2018-03-27T08:56:54.404Z,11.83
2018-03-27T08:59:21.402Z,10.10
2018-03-27T09:01:48.431Z,10.00
2018-03-27T09:04:16.192Z,8.40
2018-03-27T09:06:43.958Z,8.60
2018-03-27T09:09:11.741Z,8.37
2018-03-27T09:11:39.036Z,8.27
2018-03-27T09:14:06.068Z,7.50
2018-03-27T09:16:33.094Z,7.80
2018-03-27T09:19:00.162Z,7.50
2018-03-27T09:21:27.174Z,7.17
2018-03-27T09:23:54.177Z,6.70
2018-03-27T09:26:21.194Z,6.03
2018-03-27T09:28:48.224Z,6.63
2018-03-27T09:31:16.005Z,7.20
2018-03-27T09:33:43.066Z,6.43
2018-03-27T09:36:10.065Z,7.37
2018-03-27T09:38:37.453Z,6.67
2018-03-27T09:41:04.490Z,6.27
2018-03-27T09:43:31.663Z,5.80
2018-03-27T09:45:58.693Z,6.03
2018-03-27T09:48:25.706Z,5.43
2018-03-27T09:50:52.762Z,6.03
2018-03-27T09:53:19.830Z,5.30
2018-03-27T09:55:46.830Z,6.07
2018-03-27T09:58:13.833Z,6.37
2018-03-27T10:00:40.859Z,5.80
2018-03-27T10:03:08.046Z,6.07
2018-03-27T10:05:35.086Z,5.20
2018-03-27T10:08:02.453Z,5.73
2018-03-27T10:10:29.462Z,5.33
2018-03-27T10:12:56.679Z,5.47
2018-03-27T10:15:23.675Z,4.87
2018-03-27T10:17:50.688Z,5.20
2018-03-27T10:20:17.698Z,4.63
2018-03-27T10:22:44.809Z,4.73
2018-03-27T10:25:12.050Z,5.10
2018-03-27T10:27:39.049Z,5.20
2018-03-27T10:30:06.065Z,5.63
2018-03-27T10:32:33.210Z,5.17
2018-03-27T10:35:00.208Z,4.57
2018-03-27T10:37:27.993Z,5.33
2018-03-27T10:39:55.765Z,4.90
2018-03-27T10:42:22.878Z,5.40
2018-03-27T10:44:49.881Z,4.33
2018-03-27T10:47:17.889Z,4.90
2018-03-27T10:49:44.895Z,4.83
2018-03-27T10:52:12.061Z,4.27
2018-03-27T10:54:39.113Z,5.13
2018-03-27T10:57:06.110Z,4.90
2018-03-27T10:59:33.133Z,4.73
2018-03-27T11:02:00.249Z,4.60
2018-03-27T11:04:27.272Z,3.90
2018-03-27T11:06:54.302Z,4.50
2018-03-27T11:09:21.306Z,4.90
2018-03-27T11:11:48.338Z,4.23
2018-03-27T11:14:15.337Z,5.33
2018-03-27T11:16:43.111Z,4.20
2018-03-27T11:19:10.215Z,4.37
2018-03-27T11:21:37.252Z,4.10
2018-03-27T11:24:04.267Z,4.60
2018-03-27T11:26:31.269Z,4.30
2018-03-27T11:28:58.249Z,4.90
2018-03-27T11:31:25.262Z,3.70
2018-03-27T11:33:52.262Z,3.77
2018-03-27T11:36:19.333Z,4.00
2018-03-27T11:38:46.336Z,4.00
2018-03-27T11:41:13.369Z,4.03
2018-03-27T11:43:41.319Z,3.60
2018-03-27T11:46:08.322Z,4.13
2018-03-27T11:48:35.320Z,3.57
2018-03-27T11:51:02.334Z,4.50
2018-03-27T11:53:29.476Z,4.20
2018-03-27T11:55:56.480Z,4.37
2018-03-27T11:58:23.475Z,3.83
2018-03-27T12:00:50.485Z,3.87
2018-03-27T12:03:17.651Z,3.63
2018-03-27T12:05:44.660Z,3.30
2018-03-27T12:08:13.164Z,4.20
2018-03-27T12:10:40.231Z,4.10
2018-03-27T12:13:07.292Z,4.00
2018-03-27T12:15:34.295Z,3.40
2018-03-27T12:18:01.301Z,3.67
2018-03-27T12:20:28.301Z,3.00
2018-03-27T12:22:56.277Z,3.80
2018-03-27T12:25:23.274Z,3.63
2018-03-27T12:27:50.278Z,3.63
2018-03-27T12:30:17.276Z,4.40
2018-03-27T12:32:44.286Z,3.80
2018-03-27T12:35:11.280Z,3.63
2018-03-27T12:37:38.270Z,4.00
2018-03-27T12:40:05.266Z,3.57
2018-03-27T12:42:32.261Z,3.30
2018-03-27T12:44:59.257Z,3.50
2018-03-27T12:47:26.453Z,3.50
2018-03-27T12:49:53.517Z,3.70
2018-03-27T12:52:20.679Z,3.40
2018-03-27T12:54:47.672Z,3.40
2018-03-27T12:57:14.684Z,3.60
2018-03-27T12:59:41.712Z,3.63
2018-03-27T13:02:08.863Z,3.77
2018-03-27T13:04:35.897Z,3.37
2018-03-27T13:07:02.919Z,3.93
2018-03-27T13:09:29.906Z,4.00
2018-03-27T13:11:57.046Z,3.80
2018-03-27T13:14:24.028Z,4.13
2018-03-27T13:16:51.040Z,3.40
2018-03-27T13:19:18.046Z,3.30
2018-03-27T13:21:45.814Z,3.90
2018-03-27T13:24:12.799Z,4.03
2018-03-27T13:26:39.857Z,4.07
2018-03-27T13:29:06.967Z,3.40
2018-03-27T13:31:33.948Z,3.93
2018-03-27T13:34:00.943Z,4.30
2018-03-27T13:36:28.734Z,3.90
2018-03-27T13:38:55.749Z,5.07
2018-03-27T13:41:22.738Z,6.30
2018-03-27T13:43:49.880Z,4.37
2018-03-27T13:46:16.887Z,4.13
2018-03-27T13:48:43.875Z,3.60
2018-03-27T13:51:10.849Z,4.60
2018-03-27T13:53:37.886Z,4.03
2018-03-27T13:56:04.876Z,3.33
2018-03-27T13:58:32.682Z,3.53
2018-03-27T14:00:59.673Z,3.30
2018-03-27T14:03:26.691Z,3.57
2018-03-27T14:05:53.724Z,3.00
2018-03-27T14:08:20.760Z,3.40
2018-03-27T14:10:47.764Z,3.30
2018-03-27T14:13:14.875Z,3.13
2018-03-27T14:15:41.886Z,3.30
2018-03-27T14:18:08.873Z,3.17
2018-03-27T14:20:36.236Z,3.50
2018-03-27T14:23:03.259Z,3.10
2018-03-27T14:25:30.257Z,2.90
2018-03-27T14:27:57.236Z,2.97
2018-03-27T14:30:24.243Z,3.37
2018-03-27T14:32:51.289Z,3.43
2018-03-27T14:35:18.284Z,3.30
2018-03-27T14:37:45.277Z,2.60
2018-03-27T14:40:12.282Z,2.83
2018-03-27T14:42:39.444Z,2.90
2018-03-27T14:45:06.428Z,2.93
2018-03-27T14:47:33.459Z,3.20
2018-03-27T14:50:00.469Z,2.80
2018-03-27T14:52:27.643Z,2.90
2018-03-27T14:54:54.633Z,2.77
2018-03-27T14:57:21.628Z,2.93
2018-03-27T14:59:48.643Z,3.20
2018-03-27T15:02:17.237Z,3.30
2018-03-27T15:04:44.405Z,3.17
2018-03-27T15:07:11.399Z,2.43
2018-03-27T15:09:38.396Z,2.80
2018-03-27T15:12:05.431Z,2.53
2018-03-27T15:14:32.433Z,3.17
2018-03-27T15:16:59.424Z,3.00
2018-03-27T15:19:27.180Z,3.40
2018-03-27T15:21:54.257Z,2.87
2018-03-27T15:24:21.284Z,3.20
2018-03-27T15:26:48.284Z,3.13
2018-03-27T15:29:15.267Z,3.37
2018-03-27T15:31:43.023Z,3.10
2018-03-27T15:34:10.092Z,3.00
2018-03-27T15:36:37.080Z,2.97
2018-03-27T15:39:04.073Z,2.73
2018-03-27T15:41:31.827Z,3.13
2018-03-27T15:43:58.820Z,3.07
2018-03-27T15:46:26.707Z,3.50
2018-03-27T15:48:53.748Z,3.10
2018-03-27T15:51:20.699Z,3.53
2018-03-27T15:53:47.704Z,3.40
2018-03-27T15:56:14.705Z,3.17
2018-03-27T15:58:41.708Z,3.40
2018-03-27T16:01:08.699Z,2.77
2018-03-27T16:03:35.905Z,3.10
2018-03-27T16:06:02.920Z,3.17
2018-03-27T16:11:03.155Z,3.10
2018-03-27T16:13:30.241Z,3.33
2018-03-27T16:15:57.290Z,2.80
2018-03-27T16:18:24.290Z,3.30
2018-03-27T16:20:51.285Z,2.50
2018-03-27T16:23:18.438Z,3.07
2018-03-27T16:25:45.425Z,2.83
2018-03-27T16:28:12.444Z,3.00
2018-03-27T16:30:39.433Z,3.00
2018-03-27T16:33:06.624Z,3.00
2018-03-27T16:35:33.631Z,3.40
2018-03-27T16:38:00.625Z,3.10
2018-03-27T16:40:27.624Z,3.70
2018-03-27T16:42:55.437Z,3.50
2018-03-27T16:45:22.431Z,3.23
2018-03-27T16:47:50.930Z,2.90
2018-03-27T16:50:17.931Z,3.30
2018-03-27T16:52:45.060Z,2.90
2018-03-27T16:55:12.038Z,3.17
2018-03-27T16:57:39.037Z,3.00
2018-03-27T17:00:06.047Z,3.00
2018-03-27T17:02:33.255Z,3.33
2018-03-27T17:05:00.256Z,3.60
2018-03-27T17:07:27.267Z,3.50
2018-03-27T17:09:54.254Z,2.93
2018-03-27T17:12:22.055Z,3.30
2018-03-27T17:14:49.084Z,2.73
2018-03-27T17:17:16.702Z,3.10
2018-03-27T17:19:43.692Z,3.00
2018-03-27T17:22:10.859Z,3.07
2018-03-27T17:24:37.844Z,2.83
2018-03-27T17:27:04.916Z,3.20
2018-03-27T17:29:31.876Z,3.20
2018-03-27T17:31:59.665Z,2.80
2018-03-27T17:34:27.835Z,3.37
2018-03-27T17:36:54.830Z,3.10
2018-03-27T17:39:21.856Z,2.73
2018-03-27T17:41:48.873Z,3.70
2018-03-27T17:44:15.874Z,3.80
2018-03-27T17:46:42.893Z,4.03
2018-03-27T17:49:09.878Z,4.80
2018-03-27T17:51:37.646Z,4.63
2018-03-27T17:54:04.645Z,4.80
2018-03-27T17:56:31.628Z,4.43
2018-03-27T17:58:59.383Z,4.60
2018-03-27T18:01:26.950Z,4.63
2018-03-27T18:03:54.344Z,4.20
2018-03-27T18:06:22.160Z,4.50
2018-03-27T18:08:49.932Z,4.20
2018-03-27T18:11:17.613Z,3.70
2018-03-27T18:13:44.791Z,4.37
2018-03-27T18:16:11.794Z,4.43
2018-03-27T18:18:38.813Z,4.20
2018-03-27T18:21:05.925Z,4.30
2018-03-27T18:23:33.041Z,4.50
2018-03-27T18:26:00.074Z,4.37
2018-03-27T18:28:27.076Z,3.90
2018-03-27T18:30:54.143Z,4.23
2018-03-27T18:33:21.368Z,3.87
2018-03-27T18:35:48.356Z,4.57
2018-03-27T18:38:15.357Z,4.17
2018-03-27T18:40:42.344Z,4.20
2018-03-27T18:43:09.374Z,3.67
2018-03-27T18:45:36.362Z,3.87
2018-03-27T18:48:03.361Z,3.60
2018-03-27T18:50:30.351Z,4.33
2018-03-27T18:52:57.550Z,4.23
2018-03-27T18:55:24.550Z,4.40
2018-03-27T18:57:53.080Z,3.20
2018-03-27T19:00:20.098Z,3.80
2018-03-27T19:02:48.608Z,4.70
2018-03-27T19:05:15.622Z,3.73
2018-03-27T19:07:42.616Z,3.60
2018-03-27T19:10:10.286Z,4.00
2018-03-27T19:12:37.426Z,4.10
2018-03-27T19:15:04.406Z,4.37
2018-03-27T19:17:31.860Z,4.43
2018-03-27T19:19:58.911Z,3.77
2018-03-27T19:22:26.072Z,4.40
2018-03-27T19:24:53.879Z,3.80
2018-03-27T19:27:20.877Z,4.13
2018-03-27T19:29:47.891Z,4.40
2018-03-27T19:32:15.041Z,4.40
2018-03-27T19:34:42.051Z,3.93
2018-03-27T19:37:09.066Z,4.27
2018-03-27T19:39:36.159Z,4.10
2018-03-27T19:42:03.413Z,4.00
2018-03-27T19:44:30.399Z,3.47
2018-03-27T19:46:57.638Z,4.20
2018-03-27T19:49:24.635Z,4.37
2018-03-27T19:51:51.833Z,4.03
2018-03-27T19:54:18.999Z,4.20
2018-03-27T19:56:45.993Z,3.97
2018-03-27T19:59:13.803Z,4.70
2018-03-27T20:01:40.800Z,3.97
2018-03-27T20:04:07.816Z,3.97
2018-03-27T20:06:34.805Z,3.43
2018-03-27T20:09:02.612Z,3.90
2018-03-27T20:11:29.620Z,3.83
2018-03-27T20:13:56.623Z,4.50
2018-03-27T20:16:23.636Z,3.90
2018-03-27T20:18:50.653Z,4.33
2018-03-27T20:21:18.416Z,3.90
2018-03-27T20:23:45.515Z,5.00
2018-03-27T20:26:12.508Z,5.00
2018-03-27T20:28:39.534Z,5.67
2018-03-27T20:31:06.529Z,4.97
2018-03-27T20:33:33.876Z,4.87
2018-03-27T20:36:00.893Z,5.23
2018-03-27T20:38:27.880Z,4.83
2018-03-27T20:40:54.901Z,5.87
2018-03-27T20:43:22.694Z,5.30
2018-03-27T20:45:49.690Z,5.10
2018-03-27T20:48:16.677Z,4.80
2018-03-27T20:50:43.787Z,4.50
2018-03-27T20:53:11.096Z,4.60
2018-03-27T20:55:38.117Z,4.53
2018-03-27T20:58:05.117Z,4.30
2018-03-27T21:00:32.141Z,4.87
2018-03-27T21:02:59.300Z,4.90
2018-03-27T21:05:26.285Z,4.90
2018-03-27T21:07:53.292Z,4.60
2018-03-27T21:10:20.288Z,4.60
2018-03-27T21:12:48.729Z,4.90
2018-03-27T21:15:15.750Z,4.90
2018-03-27T21:17:42.763Z,4.47
2018-03-27T21:20:09.766Z,4.67
2018-03-27T21:22:36.877Z,4.30
2018-03-27T21:25:04.892Z,5.00
2018-03-27T21:27:31.885Z,4.07
2018-03-27T21:29:59.146Z,4.60
2018-03-27T21:32:27.147Z,4.00
2018-03-27T21:34:54.557Z,4.40
2018-03-27T21:37:21.516Z,4.77
2018-03-27T21:39:48.528Z,4.30
2018-03-27T21:42:15.727Z,4.50
2018-03-27T21:44:42.731Z,3.43
2018-03-27T21:47:09.753Z,4.43
2018-03-27T21:49:36.753Z,3.87
2018-03-27T21:52:03.917Z,4.00
2018-03-27T21:54:31.194Z,4.70
2018-03-27T21:56:58.176Z,4.27
2018-03-27T21:59:25.177Z,3.80
2018-03-27T22:01:52.517Z,4.70
2018-03-27T22:04:19.480Z,4.33
2018-03-27T22:06:46.504Z,4.03
2018-03-27T22:09:13.868Z,4.27
2018-03-27T22:11:41.018Z,3.70
2018-03-27T22:14:08.020Z,3.63
2018-03-27T22:16:35.040Z,3.70
2018-03-27T22:19:01.990Z,4.07
2018-03-27T22:21:29.106Z,3.50
2018-03-27T22:23:56.071Z,3.73
2018-03-27T22:26:23.024Z,3.77
2018-03-27T22:28:50.006Z,3.73
2018-03-27T22:31:16.984Z,3.50
2018-03-27T22:33:44.113Z,3.70
2018-03-27T22:36:11.782Z,4.00
2018-03-27T22:38:38.738Z,3.57
2018-03-27T22:41:05.720Z,3.90
2018-03-27T22:43:34.458Z,3.23
2018-03-27T22:46:01.659Z,4.27
2018-03-27T22:48:28.874Z,3.70
2018-03-27T22:50:56.116Z,3.93
2018-03-27T22:53:23.162Z,3.70
2018-03-27T22:55:50.588Z,3.37
2018-03-27T22:58:17.554Z,3.40
2018-03-27T23:00:44.579Z,3.60
2018-03-27T23:03:11.580Z,3.30
2018-03-27T23:05:38.545Z,3.40
2018-03-27T23:08:05.519Z,3.27
2018-03-27T23:10:32.474Z,3.13
2018-03-27T23:12:59.542Z,3.27
2018-03-27T23:15:26.509Z,3.20
2018-03-27T23:17:53.472Z,2.80
2018-03-27T23:20:20.458Z,3.27
2018-03-27T23:22:47.525Z,3.00
2018-03-27T23:25:14.507Z,3.00
2018-03-27T23:27:41.465Z,3.23
2018-03-27T23:30:08.429Z,2.97
2018-03-27T23:32:35.514Z,2.63
2018-03-27T23:35:02.501Z,3.23
2018-03-27T23:37:29.468Z,2.90
2018-03-27T23:39:56.426Z,2.60
2018-03-27T23:42:24.304Z,2.83
2018-03-27T23:44:51.272Z,3.00
2018-03-27T23:47:18.250Z,3.20
2018-03-27T23:49:45.214Z,3.07
2018-03-27T23:52:12.311Z,2.60
2018-03-27T23:54:39.279Z,2.50
2018-03-27T23:57:06.236Z,2.20
2018-03-27T23:59:33.206Z,2.87
